createdAt,value
2018-06-01T00:00:36.468Z,1.97
2018-06-01T00:03:04.952Z,2.07
2018-06-01T00:05:33.406Z,2.30
2018-06-01T00:08:01.812Z,2.40
2018-06-01T00:10:30.271Z,2.47
2018-06-01T00:12:58.692Z,2.00
2018-06-01T00:15:27.115Z,2.30
2018-06-01T00:17:55.537Z,2.10
2018-06-01T00:20:24.022Z,2.70
2018-06-01T00:22:52.424Z,2.37
2018-06-01T00:25:20.866Z,2.40
2018-06-01T00:27:49.341Z,2.33
2018-06-01T00:30:17.780Z,2.63
2018-06-01T00:32:46.214Z,2.00
2018-06-01T00:35:14.642Z,2.27
2018-06-01T00:37:43.039Z,2.83
2018-06-01T00:40:11.569Z,2.10
2018-06-01T00:42:40.032Z,2.30
2018-06-01T00:45:08.463Z,2.07
2018-06-01T00:47:36.909Z,2.17
2018-06-01T00:50:05.390Z,2.80
2018-06-01T00:52:33.835Z,2.17
2018-06-01T00:55:14.127Z,2.30
2018-06-01T00:57:42.510Z,2.87
2018-06-01T01:00:10.887Z,2.20
2018-06-01T01:02:39.375Z,2.73
2018-06-01T01:05:07.767Z,2.77
2018-06-01T01:07:36.166Z,2.80
2018-06-01T01:10:04.671Z,2.77
2018-06-01T01:12:33.096Z,2.50
2018-06-01T01:15:01.546Z,2.80
2018-06-01T01:17:30.007Z,3.07
2018-06-01T01:19:58.484Z,2.40
2018-06-01T01:22:26.949Z,3.00
2018-06-01T01:24:55.404Z,2.33
2018-06-01T01:27:23.840Z,2.57
2018-06-01T01:29:52.264Z,2.47
2018-06-01T01:32:20.695Z,3.10
2018-06-01T01:34:49.097Z,2.53
2018-06-01T01:37:29.167Z,3.43
2018-06-01T01:40:00.484Z,2.93
2018-06-01T01:42:28.916Z,3.03
2018-06-01T01:44:57.355Z,2.80
2018-06-01T01:47:25.810Z,2.67
2018-06-01T01:49:54.345Z,2.63
2018-06-01T01:52:22.767Z,2.43
2018-06-01T01:54:51.230Z,2.90
2018-06-01T01:57:19.683Z,2.57
2018-06-01T01:59:48.097Z,2.70
2018-06-01T02:02:16.542Z,2.40
2018-06-01T02:04:44.942Z,2.50
2018-06-01T02:07:13.365Z,2.93
2018-06-01T02:09:41.811Z,3.00
2018-06-01T02:12:10.210Z,2.83
2018-06-01T02:14:38.660Z,3.40
2018-06-01T02:17:07.133Z,2.70
2018-06-01T02:19:35.530Z,3.47
2018-06-01T02:22:03.931Z,2.50
2018-06-01T02:24:32.384Z,3.30
2018-06-01T02:27:00.946Z,3.20
2018-06-01T02:29:29.332Z,2.60
2018-06-01T02:31:57.767Z,3.03
2018-06-01T02:34:26.209Z,3.30
2018-06-01T02:36:54.627Z,3.40
2018-06-01T02:39:23.076Z,3.47
2018-06-01T02:41:51.521Z,3.67
2018-06-01T02:44:19.967Z,3.10
2018-06-01T02:46:48.404Z,2.60
2018-06-01T02:49:16.842Z,3.20
2018-06-01T02:51:45.277Z,2.93
2018-06-01T02:54:13.731Z,3.20
2018-06-01T02:56:42.121Z,3.47
2018-06-01T02:59:10.624Z,3.10
2018-06-01T03:01:39.070Z,3.57
2018-06-01T03:04:07.503Z,4.30
2018-06-01T03:06:47.776Z,3.77
2018-06-01T03:09:16.347Z,3.67
2018-06-01T03:11:44.788Z,4.03
2018-06-01T03:14:13.303Z,4.27
2018-06-01T03:16:41.732Z,3.97
2018-06-01T03:19:10.281Z,3.13
2018-06-01T03:21:38.678Z,4.63
2018-06-01T03:24:07.144Z,3.80
2018-06-01T03:26:35.601Z,4.03
2018-06-01T03:29:04.071Z,3.77
2018-06-01T03:31:32.520Z,4.77
2018-06-01T03:34:00.918Z,6.07
2018-06-01T03:36:29.406Z,4.40
2018-06-01T03:38:58.801Z,3.97
2018-06-01T03:41:27.230Z,3.73
2018-06-01T03:43:55.643Z,4.20
2018-06-01T03:46:24.117Z,4.10
2018-06-01T03:48:52.606Z,3.87
2018-06-01T03:51:21.037Z,3.80
2018-06-01T03:53:49.589Z,3.27
2018-06-01T03:56:18.029Z,3.43
2018-06-01T03:58:46.452Z,3.83
2018-06-01T04:01:14.882Z,3.83
2018-06-01T04:03:43.265Z,3.10
2018-06-01T04:06:11.769Z,3.50
2018-06-01T04:08:40.246Z,4.23
2018-06-01T04:11:08.664Z,5.33
2018-06-01T04:13:37.081Z,4.57
2018-06-01T04:16:05.623Z,5.00
2018-06-01T04:18:34.072Z,4.10
2018-06-01T04:21:02.554Z,3.73
2018-06-01T04:23:31.044Z,4.27
2018-06-01T04:25:59.535Z,4.87
2018-06-01T04:28:27.943Z,4.10
2018-06-01T04:30:56.320Z,4.37
2018-06-01T04:33:24.770Z,4.10
2018-06-01T04:35:53.166Z,5.73
2018-06-01T04:38:21.632Z,6.97
2018-06-01T04:40:50.044Z,6.27
2018-06-01T04:43:18.511Z,7.63
2018-06-01T04:45:46.928Z,6.47
2018-06-01T04:48:15.313Z,8.20
2018-06-01T04:50:43.788Z,7.27
2018-06-01T04:53:12.183Z,6.60
2018-06-01T04:55:40.662Z,5.90
2018-06-01T04:58:09.055Z,7.27
2018-06-01T05:00:37.515Z,6.97
2018-06-01T05:03:05.947Z,6.27
2018-06-01T05:05:34.419Z,8.57
2018-06-01T05:08:02.903Z,6.63
2018-06-01T05:10:31.340Z,6.23
2018-06-01T05:12:59.816Z,5.97
2018-06-01T05:15:28.286Z,7.80
2018-06-01T05:17:56.753Z,6.10
2018-06-01T05:20:25.204Z,7.27
2018-06-01T05:22:53.687Z,6.33
2018-06-01T05:25:22.131Z,6.20
2018-06-01T05:27:50.546Z,5.33
2018-06-01T05:30:18.995Z,5.23
2018-06-01T05:32:47.489Z,5.67
2018-06-01T05:35:15.971Z,6.13
2018-06-01T05:37:44.363Z,4.57
2018-06-01T05:40:12.806Z,5.43
2018-06-01T05:42:41.271Z,5.23
2018-06-01T05:45:09.787Z,5.17
2018-06-01T05:47:38.218Z,5.10
2018-06-01T05:50:06.666Z,5.93
2018-06-01T05:52:35.147Z,6.47
2018-06-01T05:55:03.623Z,5.87
2018-06-01T05:57:32.067Z,5.10
2018-06-01T06:00:00.542Z,5.77
2018-06-01T06:02:28.998Z,6.13
2018-06-01T06:04:57.427Z,4.93
2018-06-01T06:07:25.855Z,5.13
2018-06-01T06:09:54.347Z,6.30
2018-06-01T06:12:22.798Z,5.57
2018-06-01T06:14:51.229Z,5.73
2018-06-01T06:17:19.699Z,5.07
2018-06-01T06:19:48.193Z,6.07
2018-06-01T06:22:16.647Z,5.23
2018-06-01T06:24:45.139Z,4.37
2018-06-01T06:27:13.560Z,4.70
2018-06-01T06:29:42.042Z,4.83
2018-06-01T06:32:10.480Z,4.20
2018-06-01T06:34:39.006Z,5.17
2018-06-01T06:37:07.451Z,5.37
2018-06-01T06:39:35.947Z,6.00
2018-06-01T06:42:04.420Z,5.77
2018-06-01T06:44:32.875Z,5.80
2018-06-01T06:47:01.306Z,6.33
2018-06-01T06:49:29.769Z,5.60
2018-06-01T06:51:58.207Z,5.93
2018-06-01T06:54:26.605Z,7.60
2018-06-01T06:56:55.039Z,5.80
2018-06-01T06:59:23.507Z,4.83
2018-06-01T07:01:51.934Z,5.67
2018-06-01T07:04:20.497Z,4.90
2018-06-01T07:06:48.968Z,4.83
2018-06-01T07:09:17.386Z,4.43
2018-06-01T07:11:45.827Z,5.83
2018-06-01T07:14:14.232Z,4.73
2018-06-01T07:16:42.691Z,6.17
2018-06-01T07:19:11.173Z,4.77
2018-06-01T07:21:39.640Z,5.13
2018-06-01T07:24:08.094Z,5.13
2018-06-01T07:26:36.524Z,5.40
2018-06-01T07:29:04.931Z,5.93
2018-06-01T07:31:33.353Z,6.77
2018-06-01T07:34:01.804Z,6.03
2018-06-01T07:36:30.214Z,6.00
2018-06-01T07:38:58.668Z,6.30
2018-06-01T07:41:27.179Z,6.47
2018-06-01T07:43:55.635Z,6.67
2018-06-01T07:46:24.087Z,6.60
2018-06-01T07:48:52.516Z,5.70
2018-06-01T07:51:21.026Z,6.23
2018-06-01T07:53:49.423Z,7.22
2018-06-01T07:56:18.212Z,7.50
2018-06-01T07:58:46.623Z,8.65
2018-06-01T08:01:15.089Z,5.95
2018-06-01T08:03:43.486Z,5.03
2018-06-01T08:06:11.918Z,4.75
2018-06-01T08:08:40.326Z,5.72
2018-06-01T08:11:08.755Z,5.05
2018-06-01T08:13:37.163Z,5.22
2018-06-01T08:16:05.647Z,4.78
2018-06-01T08:18:34.071Z,5.35
2018-06-01T08:21:02.519Z,5.55
2018-06-01T08:23:30.973Z,5.37
2018-06-01T08:25:59.391Z,5.50
2018-06-01T08:28:27.840Z,4.05
2018-06-01T08:30:56.287Z,4.85
2018-06-01T08:33:24.845Z,4.82
2018-06-01T08:35:53.351Z,4.97
2018-06-01T08:38:21.755Z,4.37
2018-06-01T08:40:50.221Z,4.53
2018-06-01T08:43:18.643Z,4.57
2018-06-01T08:45:47.068Z,4.47
2018-06-01T08:48:15.503Z,3.55
2018-06-01T08:50:43.931Z,4.50
2018-06-01T08:53:12.428Z,4.00
2018-06-01T08:55:40.829Z,3.03
2018-06-01T08:58:09.285Z,3.85
2018-06-01T09:00:37.671Z,3.08
2018-06-01T09:03:06.114Z,3.47
2018-06-01T09:05:34.578Z,3.90
2018-06-01T09:08:03.154Z,3.95
2018-06-01T09:10:31.636Z,4.07
2018-06-01T09:13:00.113Z,3.60
2018-06-01T09:15:28.568Z,3.50
2018-06-01T09:17:57.078Z,4.07
2018-06-01T09:20:25.502Z,4.82
2018-06-01T09:22:53.983Z,3.60
2018-06-01T09:25:22.439Z,3.60
2018-06-01T09:27:50.848Z,3.22
2018-06-01T09:30:19.268Z,3.12
2018-06-01T09:32:47.719Z,4.07
2018-06-01T09:35:16.120Z,3.55
2018-06-01T09:37:44.676Z,3.30
2018-06-01T09:40:13.065Z,4.15
2018-06-01T09:42:41.542Z,3.70
2018-06-01T09:45:09.996Z,4.22
2018-06-01T09:47:38.399Z,3.42
2018-06-01T09:50:06.833Z,4.65
2018-06-01T09:52:35.275Z,4.78
2018-06-01T09:55:03.712Z,5.22
2018-06-01T09:57:32.205Z,6.55
2018-06-01T10:00:00.658Z,2.92
2018-06-01T10:02:29.115Z,3.80
2018-06-01T10:04:57.576Z,3.40
2018-06-01T10:07:26.032Z,3.05
2018-06-01T10:10:00.168Z,3.37
2018-06-01T10:12:28.643Z,4.18
2018-06-01T10:14:57.106Z,3.35
2018-06-01T10:17:25.571Z,3.40
2018-06-01T10:19:54.000Z,2.65
2018-06-01T10:22:22.459Z,2.78
2018-06-01T10:24:50.884Z,2.85
2018-06-01T10:27:19.467Z,3.62
2018-06-01T10:29:47.876Z,4.32
2018-06-01T10:32:16.287Z,4.15
2018-06-01T10:34:44.732Z,2.72
2018-06-01T10:37:13.115Z,2.75
2018-06-01T10:39:41.550Z,2.83
2018-06-01T10:42:10.006Z,3.08
2018-06-01T10:44:38.460Z,3.35
2018-06-01T10:47:06.890Z,3.80
2018-06-01T10:49:35.362Z,3.70
2018-06-01T10:52:03.812Z,3.22
2018-06-01T10:54:32.223Z,4.05
2018-06-01T10:57:00.659Z,3.35
2018-06-01T10:59:29.117Z,3.85
2018-06-01T11:01:57.579Z,4.30
2018-06-01T11:04:26.011Z,3.12
2018-06-01T11:06:54.493Z,3.87
2018-06-01T11:09:22.945Z,3.60
2018-06-01T11:11:51.501Z,3.53
2018-06-01T11:14:19.928Z,3.62
2018-06-01T11:16:48.407Z,4.07
2018-06-01T11:19:16.873Z,3.50
2018-06-01T11:21:45.328Z,4.57
2018-06-01T11:24:13.727Z,5.35
2018-06-01T11:26:42.131Z,3.42
2018-06-01T11:29:10.564Z,2.92
2018-06-01T11:31:38.979Z,4.03
2018-06-01T11:34:07.382Z,2.95
2018-06-01T11:36:35.765Z,3.03
2018-06-01T11:39:04.323Z,3.33
2018-06-01T11:41:32.804Z,3.03
2018-06-01T11:44:01.264Z,3.20
2018-06-01T11:46:29.688Z,2.92
2018-06-01T11:48:58.181Z,3.33
2018-06-01T11:51:26.613Z,3.00
2018-06-01T11:53:55.040Z,3.53
2018-06-01T11:56:23.459Z,3.45
2018-06-01T11:58:51.935Z,3.58
2018-06-01T12:01:20.324Z,3.37
2018-06-01T12:03:48.796Z,4.10
2018-06-01T12:06:17.195Z,3.62
2018-06-01T12:08:45.623Z,4.32
2018-06-01T12:11:14.108Z,4.55
2018-06-01T12:13:42.485Z,3.87
2018-06-01T12:16:10.849Z,4.00
2018-06-01T12:18:39.292Z,3.53
2018-06-01T12:21:07.687Z,3.53
2018-06-01T12:23:36.085Z,3.83
2018-06-01T12:26:04.694Z,3.42
2018-06-01T12:28:33.106Z,4.10
2018-06-01T12:31:01.525Z,4.90
2018-06-01T12:33:29.992Z,3.90
2018-06-01T12:35:58.422Z,4.25
2018-06-01T12:38:26.860Z,4.72
2018-06-01T12:40:55.257Z,4.45
2018-06-01T12:43:23.732Z,3.50
2018-06-01T12:45:52.192Z,4.05
2018-06-01T12:48:20.603Z,3.40
2018-06-01T12:50:48.994Z,4.40
2018-06-01T12:53:17.456Z,5.07
2018-06-01T12:55:45.875Z,4.30
2018-06-01T12:58:14.372Z,4.55
2018-06-01T13:00:42.805Z,4.03
2018-06-01T13:03:11.229Z,4.80
2018-06-01T13:05:39.700Z,5.70
2018-06-01T13:08:08.088Z,4.57
2018-06-01T13:10:36.636Z,3.92
2018-06-01T13:13:05.096Z,4.55
2018-06-01T13:15:33.520Z,7.03
2018-06-01T13:18:01.972Z,6.22
2018-06-01T13:20:30.425Z,5.18
2018-06-01T13:22:58.895Z,5.10
2018-06-01T13:25:27.333Z,6.28
2018-06-01T13:27:55.741Z,6.40
2018-06-01T13:30:24.179Z,7.40
2018-06-01T13:32:52.635Z,5.18
2018-06-01T13:35:21.101Z,6.10
2018-06-01T13:37:49.507Z,7.53
2018-06-01T13:40:17.946Z,6.30
2018-06-01T13:42:46.707Z,7.65
2018-06-01T13:45:15.184Z,4.37
2018-06-01T13:47:43.709Z,4.82
2018-06-01T13:50:12.147Z,4.20
2018-06-01T13:52:40.607Z,5.07
2018-06-01T13:55:09.099Z,5.35
2018-06-01T13:57:37.560Z,4.80
2018-06-01T14:00:06.029Z,5.37
2018-06-01T14:02:34.419Z,5.32
2018-06-01T14:05:02.860Z,5.07
2018-06-01T14:07:31.272Z,7.62
2018-06-01T14:09:59.759Z,5.90
2018-06-01T14:12:28.180Z,5.60
2018-06-01T14:14:56.636Z,5.82
2018-06-01T14:17:25.100Z,5.57
2018-06-01T14:19:53.557Z,5.32
2018-06-01T14:22:22.018Z,5.80
2018-06-01T14:24:50.410Z,4.70
2018-06-01T14:27:18.855Z,4.70
2018-06-01T14:29:47.263Z,5.55
2018-06-01T14:32:15.671Z,5.85
2018-06-01T14:34:44.130Z,5.87
2018-06-01T14:37:12.564Z,5.07
2018-06-01T14:39:41.015Z,5.40
2018-06-01T14:42:09.420Z,5.62
2018-06-01T14:44:37.902Z,7.37
2018-06-01T14:47:06.407Z,4.00
2018-06-01T14:49:34.772Z,7.45
2018-06-01T14:52:03.235Z,6.28
2018-06-01T14:54:31.650Z,6.32
2018-06-01T14:57:00.099Z,5.93
2018-06-01T14:59:28.504Z,5.50
2018-06-01T15:01:56.913Z,4.25
2018-06-01T15:04:25.544Z,5.00
2018-06-01T15:06:54.019Z,5.55
2018-06-01T15:09:22.423Z,6.10
2018-06-01T15:11:50.884Z,5.45
2018-06-01T15:14:19.396Z,5.25
2018-06-01T15:16:47.804Z,5.53
2018-06-01T15:19:16.302Z,5.35
2018-06-01T15:21:44.748Z,5.20
2018-06-01T15:24:13.160Z,5.70
2018-06-01T15:26:41.706Z,5.12
2018-06-01T15:29:10.114Z,6.65
2018-06-01T15:31:38.568Z,4.97
2018-06-01T15:34:07.008Z,4.82
2018-06-01T15:36:35.443Z,5.65
2018-06-01T15:39:03.968Z,4.65
2018-06-01T15:41:32.418Z,4.20
2018-06-01T15:44:00.890Z,4.72
2018-06-01T15:46:29.371Z,4.68
2018-06-01T15:48:57.811Z,4.18
2018-06-01T15:51:26.273Z,4.68
2018-06-01T15:53:54.707Z,4.68
2018-06-01T15:56:23.103Z,5.97
2018-06-01T15:58:51.665Z,6.37
2018-06-01T16:01:20.112Z,5.57
2018-06-01T16:03:48.559Z,6.70
2018-06-01T16:06:16.979Z,5.47
2018-06-01T16:08:45.446Z,6.68
2018-06-01T16:11:13.887Z,6.57
2018-06-01T16:13:42.309Z,5.65
2018-06-01T16:16:10.740Z,5.10
2018-06-01T16:18:39.190Z,5.60
2018-06-01T16:21:07.627Z,5.35
2018-06-01T16:23:36.076Z,6.25
2018-06-01T16:26:04.471Z,4.90
2018-06-01T16:28:32.921Z,5.18
2018-06-01T16:31:01.336Z,5.00
2018-06-01T16:33:29.778Z,7.40
2018-06-01T16:35:58.179Z,4.55
2018-06-01T16:38:26.647Z,5.05
2018-06-01T16:40:55.112Z,4.72
2018-06-01T16:43:23.549Z,6.05
2018-06-01T16:45:51.972Z,5.95
2018-06-01T16:48:20.450Z,6.00
2018-06-01T16:50:48.884Z,4.75
2018-06-01T16:53:17.284Z,4.45
2018-06-01T16:55:45.757Z,5.82
2018-06-01T16:58:14.228Z,4.43
2018-06-01T17:00:42.652Z,3.83
2018-06-01T17:03:11.853Z,5.03
2018-06-01T17:05:40.296Z,4.60
2018-06-01T17:08:08.744Z,5.25
2018-06-01T17:10:37.149Z,4.60
2018-06-01T17:13:05.584Z,5.12
2018-06-01T17:15:34.104Z,4.55
2018-06-01T17:18:02.484Z,4.05
2018-06-01T17:20:30.960Z,4.97
2018-06-01T17:22:59.355Z,7.20
2018-06-01T17:25:27.818Z,4.65
2018-06-01T17:27:56.275Z,6.15
2018-06-01T17:30:24.675Z,4.93
2018-06-01T17:32:53.081Z,4.50
2018-06-01T17:35:21.523Z,4.40
2018-06-01T17:37:49.949Z,5.00
2018-06-01T17:40:18.384Z,5.93
2018-06-01T17:42:46.811Z,4.43
2018-06-01T17:45:15.293Z,5.22
2018-06-01T17:47:43.739Z,6.35
2018-06-01T17:50:12.200Z,4.72
2018-06-01T17:52:40.657Z,5.22
2018-06-01T17:55:09.104Z,4.45
2018-06-01T17:57:37.531Z,5.10
2018-06-01T18:00:06.021Z,4.32
2018-06-01T18:02:34.410Z,4.70
2018-06-01T18:05:02.914Z,4.53
2018-06-01T18:07:31.312Z,5.03
2018-06-01T18:09:59.807Z,6.07
2018-06-01T18:12:28.203Z,6.55
2018-06-01T18:14:56.652Z,5.05
2018-06-01T18:17:25.057Z,6.43
2018-06-01T18:19:53.532Z,12.57
2018-06-01T18:22:21.979Z,14.10
2018-06-01T18:24:51.341Z,6.57
2018-06-01T18:27:19.754Z,6.47
2018-06-01T18:29:48.160Z,10.45
2018-06-01T18:32:16.598Z,5.32
2018-06-01T18:34:45.041Z,7.60
2018-06-01T18:37:13.496Z,6.73
2018-06-01T18:39:41.938Z,6.10
2018-06-01T18:42:10.460Z,6.50
2018-06-01T18:44:38.934Z,5.73
2018-06-01T18:47:07.335Z,5.83
2018-06-01T18:49:35.868Z,5.53
2018-06-01T18:52:04.360Z,5.67
2018-06-01T18:54:32.841Z,6.37
2018-06-01T18:57:01.279Z,6.73
2018-06-01T18:59:29.679Z,9.23
2018-06-01T19:01:58.222Z,9.97
2018-06-01T19:04:26.593Z,7.50
2018-06-01T19:06:55.002Z,7.27
2018-06-01T19:09:23.761Z,8.00
2018-06-01T19:11:52.185Z,9.73
2018-06-01T19:14:20.600Z,9.77
2018-06-01T19:16:49.667Z,9.53
2018-06-01T19:19:18.034Z,10.13
2018-06-01T19:21:46.424Z,7.17
2018-06-01T19:24:14.875Z,7.47
2018-06-01T19:26:43.289Z,7.60
2018-06-01T19:29:11.701Z,7.70
2018-06-01T19:31:40.467Z,8.90
2018-06-01T19:34:08.902Z,10.40
2018-06-01T19:36:37.307Z,12.53
2018-06-01T19:39:06.211Z,13.27
2018-06-01T19:41:34.616Z,8.90
2018-06-01T19:44:03.022Z,10.33
2018-06-01T19:46:31.890Z,7.27
2018-06-01T19:49:00.292Z,8.20
2018-06-01T19:51:28.701Z,8.60
2018-06-01T19:53:57.113Z,7.27
2018-06-01T19:56:25.535Z,6.93
2018-06-01T19:58:53.933Z,7.50
2018-06-01T20:01:22.552Z,7.10
2018-06-01T20:03:50.964Z,7.33
2018-06-01T20:06:19.367Z,7.27
2018-06-01T20:08:48.295Z,5.97
2018-06-01T20:11:16.693Z,6.27
2018-06-01T20:13:45.104Z,5.53
2018-06-01T20:16:13.739Z,5.73
2018-06-01T20:18:42.261Z,5.87
2018-06-01T20:21:10.666Z,6.33
2018-06-01T20:23:39.409Z,5.47
2018-06-01T20:26:07.824Z,5.33
2018-06-01T20:28:36.216Z,6.70
2018-06-01T20:31:04.670Z,6.03
2018-06-01T20:33:33.092Z,6.43
2018-06-01T20:36:01.503Z,6.40
2018-06-01T20:38:30.242Z,6.67
2018-06-01T20:40:58.731Z,5.90
2018-06-01T20:43:27.130Z,7.10
2018-06-01T20:45:55.947Z,6.33
2018-06-01T20:48:24.355Z,6.60
2018-06-01T20:50:52.758Z,6.67
2018-06-01T20:53:21.700Z,6.30
2018-06-01T20:55:50.099Z,6.30
2018-06-01T20:58:18.500Z,5.67
2018-06-01T21:00:47.256Z,6.10
2018-06-01T21:03:15.688Z,5.77
2018-06-01T21:05:44.074Z,5.87
2018-06-01T21:08:12.894Z,6.43
2018-06-01T21:10:41.290Z,5.73
2018-06-01T21:13:09.709Z,6.60
2018-06-01T21:15:38.365Z,7.20
2018-06-01T21:18:06.881Z,5.53
2018-06-01T21:20:35.320Z,6.20
2018-06-01T21:23:04.045Z,5.83
2018-06-01T21:25:32.790Z,5.80
2018-06-01T21:28:01.351Z,5.73
2018-06-01T21:30:30.159Z,5.63
2018-06-01T21:32:58.581Z,5.10
2018-06-01T21:35:26.994Z,5.87
2018-06-01T21:37:55.740Z,5.47
2018-06-01T21:40:24.647Z,5.00
2018-06-01T21:42:53.037Z,4.67
2018-06-01T21:45:21.871Z,4.60
2018-06-01T21:47:51.114Z,5.27
2018-06-01T21:50:19.516Z,5.03
2018-06-01T21:52:48.003Z,4.70
2018-06-01T21:55:16.495Z,5.73
2018-06-01T21:57:45.285Z,4.63
2018-06-01T22:00:13.850Z,4.43
2018-06-01T22:02:42.372Z,5.70
2018-06-01T22:05:10.815Z,5.13
2018-06-01T22:07:39.545Z,6.63
2018-06-01T22:10:08.048Z,5.00
2018-06-01T22:12:36.477Z,5.17
2018-06-01T22:15:05.295Z,4.60
2018-06-01T22:17:33.778Z,5.07
2018-06-01T22:20:02.233Z,6.23
2018-06-01T22:22:31.106Z,4.77
2018-06-01T22:24:59.516Z,4.27
2018-06-01T22:27:27.928Z,4.97
2018-06-01T22:29:56.776Z,4.50
2018-06-01T22:32:25.171Z,4.83
2018-06-01T22:34:53.589Z,4.60
2018-06-01T22:37:22.169Z,4.53
2018-06-01T22:39:50.604Z,4.53
2018-06-01T22:42:19.079Z,4.23
2018-06-01T22:44:47.915Z,5.03
2018-06-01T22:47:16.406Z,5.13
2018-06-01T22:49:44.833Z,4.70
2018-06-01T22:52:13.646Z,5.73
2018-06-01T22:54:42.168Z,4.83
2018-06-01T22:57:10.672Z,4.30
2018-06-01T22:59:39.146Z,4.70
2018-06-01T23:02:07.567Z,4.80
2018-06-01T23:04:36.011Z,5.83
2018-06-01T23:07:04.646Z,5.10
2018-06-01T23:09:33.041Z,5.83
2018-06-01T23:12:01.452Z,4.63
2018-06-01T23:14:30.315Z,5.13
2018-06-01T23:16:59.579Z,5.00
2018-06-01T23:19:27.989Z,5.00
2018-06-01T23:21:56.773Z,4.40
2018-06-01T23:24:25.248Z,5.50
2018-06-01T23:26:53.713Z,5.00
2018-06-01T23:29:22.521Z,5.40
2018-06-01T23:31:50.934Z,5.17
2018-06-01T23:34:19.370Z,5.47
2018-06-01T23:36:47.837Z,6.23
2018-06-01T23:39:16.300Z,6.07
2018-06-01T23:41:44.702Z,5.70
2018-06-01T23:44:13.287Z,5.90
2018-06-01T23:46:41.682Z,6.20
2018-06-01T23:49:10.116Z,6.60
2018-06-01T23:51:38.857Z,6.00
2018-06-01T23:54:07.263Z,6.07
2018-06-01T23:56:35.630Z,6.27
2018-06-01T23:59:04.394Z,6.93
